sensor_id;sensor_type;location;lat;lon;timestamp;temperature;humidity
1429;DHT22;708;51.442;7.016;2023-04-01T00:02:26;11.60;50.00
1429;DHT22;708;51.442;7.016;2023-04-01T00:04:53;11.60;57.20
1429;DHT22;708;51.442;7.016;2023-04-01T00:07:20;11.50;59.40
1429;DHT22;708;51.442;7.016;2023-04-01T00:09:49;11.50;63.00
1429;DHT22;708;51.442;7.016;2023-04-01T00:12:16;11.40;61.00
1429;DHT22;708;51.442;7.016;2023-04-01T00:14:42;11.50;56.40
1429;DHT22;708;51.442;7.016;2023-04-01T00:17:09;11.50;54.90
1429;DHT22;708;51.442;7.016;2023-04-01T00:19:36;11.40;56.80
1429;DHT22;708;51.442;7.016;2023-04-01T00:22:03;11.50;59.10
1429;DHT22;708;51.442;7.016;2023-04-01T00:24:29;11.50;62.50
1429;DHT22;708;51.442;7.016;2023-04-01T00:26:58;11.50;60.90
1429;DHT22;708;51.442;7.016;2023-04-01T00:29:24;11.60;59.90
1429;DHT22;708;51.442;7.016;2023-04-01T00:31:55;11.50;66.90
1429;DHT22;708;51.442;7.016;2023-04-01T00:34:21;11.50;89.90
1429;DHT22;708;51.442;7.016;2023-04-01T00:36:49;11.50;95.90
1429;DHT22;708;51.442;7.016;2023-04-01T00:39:15;11.50;96.60
1429;DHT22;708;51.442;7.016;2023-04-01T00:41:42;11.40;99.10
1429;DHT22;708;51.442;7.016;2023-04-01T00:44:17;11.40;99.90
1429;DHT22;708;51.442;7.016;2023-04-01T00:46:44;11.40;99.90
1429;DHT22;708;51.442;7.016;2023-04-01T00:49:12;11.30;99.90
1429;DHT22;708;51.442;7.016;2023-04-01T00:51:41;11.30;99.90
1429;DHT22;708;51.442;7.016;2023-04-01T00:54:08;11.30;99.90
1429;DHT22;708;51.442;7.016;2023-04-01T00:56:37;11.30;99.90
1429;DHT22;708;51.442;7.016;2023-04-01T00:59:08;11.30;99.90
1429;DHT22;708;51.442;7.016;2023-04-01T01:01:37;11.30;99.90
1429;DHT22;708;51.442;7.016;2023-04-01T01:04:05;11.30;99.90
1429;DHT22;708;51.442;7.016;2023-04-01T01:06:42;11.30;99.90
1429;DHT22;708;51.442;7.016;2023-04-01T01:09:25;11.30;99.90
1429;DHT22;708;51.442;7.016;2023-04-01T01:11:58;11.20;99.90
1429;DHT22;708;51.442;7.016;2023-04-01T01:14:38;11.20;99.90
1429;DHT22;708;51.442;7.016;2023-04-01T01:17:15;11.20;99.90
1429;DHT22;708;51.442;7.016;2023-04-01T01:19:57;11.20;99.90
1429;DHT22;708;51.442;7.016;2023-04-01T01:22:43;11.20;99.90
1429;DHT22;708;51.442;7.016;2023-04-01T01:25:25;11.30;99.90
1429;DHT22;708;51.442;7.016;2023-04-01T01:28:01;11.30;99.90
1429;DHT22;708;51.442;7.016;2023-04-01T01:30:39;11.30;99.90
1429;DHT22;708;51.442;7.016;2023-04-01T01:33:17;11.30;99.90
1429;DHT22;708;51.442;7.016;2023-04-01T01:35:49;11.40;99.90
1429;DHT22;708;51.442;7.016;2023-04-01T01:38:21;11.40;99.90
1429;DHT22;708;51.442;7.016;2023-04-01T01:40:50;11.40;99.90
1429;DHT22;708;51.442;7.016;2023-04-01T01:43:24;11.40;99.90
1429;DHT22;708;51.442;7.016;2023-04-01T01:45:54;11.30;99.90
1429;DHT22;708;51.442;7.016;2023-04-01T01:48:22;11.30;99.90
1429;DHT22;708;51.442;7.016;2023-04-01T01:50:52;11.20;99.90
1429;DHT22;708;51.442;7.016;2023-04-01T01:53:19;11.20;99.90
1429;DHT22;708;51.442;7.016;2023-04-01T01:55:46;11.20;99.90
1429;DHT22;708;51.442;7.016;2023-04-01T01:58:16;11.20;99.90
1429;DHT22;708;51.442;7.016;2023-04-01T02:00:48;11.20;99.90
1429;DHT22;708;51.442;7.016;2023-04-01T02:03:15;11.20;99.90
1429;DHT22;708;51.442;7.016;2023-04-01T02:05:44;11.20;99.90
1429;DHT22;708;51.442;7.016;2023-04-01T02:08:15;11.20;95.80
1429;DHT22;708;51.442;7.016;2023-04-01T02:10:47;11.20;99.90
1429;DHT22;708;51.442;7.016;2023-04-01T02:13:18;11.20;99.90
1429;DHT22;708;51.442;7.016;2023-04-01T02:15:47;11.10;99.90
1429;DHT22;708;51.442;7.016;2023-04-01T02:18:17;11.20;99.90
1429;DHT22;708;51.442;7.016;2023-04-01T02:20:46;11.20;99.90
1429;DHT22;708;51.442;7.016;2023-04-01T02:23:14;11.20;99.90
1429;DHT22;708;51.442;7.016;2023-04-01T02:25:43;11.20;99.90
1429;DHT22;708;51.442;7.016;2023-04-01T02:28:14;11.20;99.90
1429;DHT22;708;51.442;7.016;2023-04-01T02:30:45;11.20;99.90
1429;DHT22;708;51.442;7.016;2023-04-01T02:33:14;11.20;99.90
1429;DHT22;708;51.442;7.016;2023-04-01T02:35:41;11.20;99.90
1429;DHT22;708;51.442;7.016;2023-04-01T02:38:09;11.20;99.90
1429;DHT22;708;51.442;7.016;2023-04-01T02:40:46;11.20;99.90
1429;DHT22;708;51.442;7.016;2023-04-01T02:43:13;11.20;99.90
1429;DHT22;708;51.442;7.016;2023-04-01T02:45:41;11.20;99.90
1429;DHT22;708;51.442;7.016;2023-04-01T02:48:08;11.20;99.90
1429;DHT22;708;51.442;7.016;2023-04-01T02:50:35;11.30;99.90
1429;DHT22;708;51.442;7.016;2023-04-01T02:53:02;11.30;99.90
1429;DHT22;708;51.442;7.016;2023-04-01T02:55:31;11.30;99.90
1429;DHT22;708;51.442;7.016;2023-04-01T02:58:00;11.30;99.90
1429;DHT22;708;51.442;7.016;2023-04-01T03:00:27;11.30;99.90
1429;DHT22;708;51.442;7.016;2023-04-01T03:02:54;11.30;99.90
1429;DHT22;708;51.442;7.016;2023-04-01T03:05:22;11.40;99.90
1429;DHT22;708;51.442;7.016;2023-04-01T03:07:49;11.40;99.90
1429;DHT22;708;51.442;7.016;2023-04-01T03:10:16;11.40;99.90
1429;DHT22;708;51.442;7.016;2023-04-01T03:12:43;11.40;99.90
1429;DHT22;708;51.442;7.016;2023-04-01T03:15:11;11.40;99.90
1429;DHT22;708;51.442;7.016;2023-04-01T03:17:40;11.40;99.90
1429;DHT22;708;51.442;7.016;2023-04-01T03:20:08;11.40;99.90
1429;DHT22;708;51.442;7.016;2023-04-01T03:22:36;11.40;99.90
1429;DHT22;708;51.442;7.016;2023-04-01T03:25:04;11.40;99.90
1429;DHT22;708;51.442;7.016;2023-04-01T03:27:31;11.30;99.90
1429;DHT22;708;51.442;7.016;2023-04-01T03:29:57;11.30;99.90
1429;DHT22;708;51.442;7.016;2023-04-01T03:32:26;11.40;99.90
1429;DHT22;708;51.442;7.016;2023-04-01T03:34:53;11.30;99.90
1429;DHT22;708;51.442;7.016;2023-04-01T03:37:20;11.30;99.90
1429;DHT22;708;51.442;7.016;2023-04-01T03:39:46;11.30;99.90
1429;DHT22;708;51.442;7.016;2023-04-01T03:42:13;11.30;99.90
1429;DHT22;708;51.442;7.016;2023-04-01T03:44:40;11.20;99.90
1429;DHT22;708;51.442;7.016;2023-04-01T03:47:07;11.30;99.90
1429;DHT22;708;51.442;7.016;2023-04-01T03:49:37;11.20;99.90
1429;DHT22;708;51.442;7.016;2023-04-01T03:52:03;11.20;99.90
1429;DHT22;708;51.442;7.016;2023-04-01T03:54:30;11.20;99.90
1429;DHT22;708;51.442;7.016;2023-04-01T03:56:57;11.20;99.90
1429;DHT22;708;51.442;7.016;2023-04-01T03:59:24;11.20;99.90
1429;DHT22;708;51.442;7.016;2023-04-01T04:01:51;11.20;99.90
1429;DHT22;708;51.442;7.016;2023-04-01T04:04:18;11.10;99.90
1429;DHT22;708;51.442;7.016;2023-04-01T04:06:46;11.20;99.90
1429;DHT22;708;51.442;7.016;2023-04-01T04:09:13;11.20;99.90
1429;DHT22;708;51.442;7.016;2023-04-01T04:11:40;11.20;99.90
1429;DHT22;708;51.442;7.016;2023-04-01T04:14:07;11.20;99.90
1429;DHT22;708;51.442;7.016;2023-04-01T04:16:34;11.20;99.90
1429;DHT22;708;51.442;7.016;2023-04-01T04:19:02;11.20;99.90
1429;DHT22;708;51.442;7.016;2023-04-01T04:21:29;11.20;99.90
1429;DHT22;708;51.442;7.016;2023-04-01T04:23:58;11.30;99.90
1429;DHT22;708;51.442;7.016;2023-04-01T04:26:25;11.30;99.90
1429;DHT22;708;51.442;7.016;2023-04-01T04:28:53;11.30;99.90
1429;DHT22;708;51.442;7.016;2023-04-01T04:31:20;11.30;99.90
1429;DHT22;708;51.442;7.016;2023-04-01T04:33:47;11.30;99.90
1429;DHT22;708;51.442;7.016;2023-04-01T04:36:14;11.30;99.90
1429;DHT22;708;51.442;7.016;2023-04-01T04:38:41;11.30;99.90
1429;DHT22;708;51.442;7.016;2023-04-01T04:41:10;11.30;99.90
1429;DHT22;708;51.442;7.016;2023-04-01T04:43:38;11.30;99.90
1429;DHT22;708;51.442;7.016;2023-04-01T04:46:06;11.30;99.90
1429;DHT22;708;51.442;7.016;2023-04-01T04:48:33;11.30;99.90
1429;DHT22;708;51.442;7.016;2023-04-01T04:51:00;11.30;99.90
1429;DHT22;708;51.442;7.016;2023-04-01T04:53:27;11.40;99.90
1429;DHT22;708;51.442;7.016;2023-04-01T04:55:53;11.40;99.90
1429;DHT22;708;51.442;7.016;2023-04-01T04:58:22;11.30;99.90
1429;DHT22;708;51.442;7.016;2023-04-01T05:00:48;11.40;99.90
1429;DHT22;708;51.442;7.016;2023-04-01T05:03:15;11.40;99.90
1429;DHT22;708;51.442;7.016;2023-04-01T05:05:49;11.40;99.90
1429;DHT22;708;51.442;7.016;2023-04-01T05:08:16;11.40;99.90
1429;DHT22;708;51.442;7.016;2023-04-01T05:10:43;11.40;99.90
1429;DHT22;708;51.442;7.016;2023-04-01T05:13:10;11.40;99.90
1429;DHT22;708;51.442;7.016;2023-04-01T05:15:38;11.50;99.90
1429;DHT22;708;51.442;7.016;2023-04-01T05:18:05;11.50;99.90
1429;DHT22;708;51.442;7.016;2023-04-01T05:20:32;11.50;99.90
1429;DHT22;708;51.442;7.016;2023-04-01T05:22:59;11.50;99.90
1429;DHT22;708;51.442;7.016;2023-04-01T05:25:26;11.50;99.90
1429;DHT22;708;51.442;7.016;2023-04-01T05:27:53;11.50;99.90
1429;DHT22;708;51.442;7.016;2023-04-01T05:30:20;11.50;99.90
1429;DHT22;708;51.442;7.016;2023-04-01T05:32:48;11.40;99.90
1429;DHT22;708;51.442;7.016;2023-04-01T05:35:15;11.40;99.90
1429;DHT22;708;51.442;7.016;2023-04-01T05:37:42;11.40;99.90
1429;DHT22;708;51.442;7.016;2023-04-01T05:40:09;11.40;99.90
1429;DHT22;708;51.442;7.016;2023-04-01T05:42:36;11.40;99.90
1429;DHT22;708;51.442;7.016;2023-04-01T05:45:04;11.40;99.90
1429;DHT22;708;51.442;7.016;2023-04-01T05:47:31;11.40;99.90
1429;DHT22;708;51.442;7.016;2023-04-01T05:49:59;11.40;99.90
1429;DHT22;708;51.442;7.016;2023-04-01T05:52:26;11.40;99.90
1429;DHT22;708;51.442;7.016;2023-04-01T05:54:53;11.50;99.90
1429;DHT22;708;51.442;7.016;2023-04-01T05:57:19;11.50;99.90
1429;DHT22;708;51.442;7.016;2023-04-01T05:59:46;11.50;99.90
1429;DHT22;708;51.442;7.016;2023-04-01T06:02:13;11.50;99.90
1429;DHT22;708;51.442;7.016;2023-04-01T06:04:45;11.50;99.90
1429;DHT22;708;51.442;7.016;2023-04-01T06:07:14;11.50;99.90
1429;DHT22;708;51.442;7.016;2023-04-01T06:09:42;11.50;99.90
1429;DHT22;708;51.442;7.016;2023-04-01T06:12:28;11.50;99.90
1429;DHT22;708;51.442;7.016;2023-04-01T06:15:06;11.60;99.90
1429;DHT22;708;51.442;7.016;2023-04-01T06:17:49;11.60;99.90
1429;DHT22;708;51.442;7.016;2023-04-01T06:20:26;11.60;99.90
1429;DHT22;708;51.442;7.016;2023-04-01T06:23:12;11.60;99.90
1429;DHT22;708;51.442;7.016;2023-04-01T06:25:52;11.60;99.90
1429;DHT22;708;51.442;7.016;2023-04-01T06:28:49;11.60;99.90
1429;DHT22;708;51.442;7.016;2023-04-01T06:31:33;11.60;99.90
1429;DHT22;708;51.442;7.016;2023-04-01T06:34:25;11.60;99.90
1429;DHT22;708;51.442;7.016;2023-04-01T06:37:13;11.60;99.90
1429;DHT22;708;51.442;7.016;2023-04-01T06:40:11;11.60;99.90
1429;DHT22;708;51.442;7.016;2023-04-01T06:42:52;11.60;99.90
1429;DHT22;708;51.442;7.016;2023-04-01T06:45:31;11.50;99.90
1429;DHT22;708;51.442;7.016;2023-04-01T06:48:11;11.60;99.90
1429;DHT22;708;51.442;7.016;2023-04-01T06:50:44;11.60;99.90
1429;DHT22;708;51.442;7.016;2023-04-01T06:53:19;11.60;99.90
1429;DHT22;708;51.442;7.016;2023-04-01T06:55:52;11.60;99.90
1429;DHT22;708;51.442;7.016;2023-04-01T06:58:23;11.60;99.90
1429;DHT22;708;51.442;7.016;2023-04-01T07:00:53;11.70;99.90
1429;DHT22;708;51.442;7.016;2023-04-01T07:03:26;11.70;99.90
1429;DHT22;708;51.442;7.016;2023-04-01T07:05:57;11.70;99.90
1429;DHT22;708;51.442;7.016;2023-04-01T07:08:27;11.70;99.90
1429;DHT22;708;51.442;7.016;2023-04-01T07:11:00;11.70;99.90
1429;DHT22;708;51.442;7.016;2023-04-01T07:13:31;11.70;99.90
1429;DHT22;708;51.442;7.016;2023-04-01T07:16:06;11.70;99.90
1429;DHT22;708;51.442;7.016;2023-04-01T07:18:38;11.70;99.90
1429;DHT22;708;51.442;7.016;2023-04-01T07:21:14;11.70;99.90
1429;DHT22;708;51.442;7.016;2023-04-01T07:23:45;11.70;99.90
1429;DHT22;708;51.442;7.016;2023-04-01T07:26:18;11.80;99.90
1429;DHT22;708;51.442;7.016;2023-04-01T07:28:46;11.80;99.90
1429;DHT22;708;51.442;7.016;2023-04-01T07:31:20;11.70;99.90
1429;DHT22;708;51.442;7.016;2023-04-01T07:33:55;11.70;99.90
1429;DHT22;708;51.442;7.016;2023-04-01T07:36:29;11.70;99.90
1429;DHT22;708;51.442;7.016;2023-04-01T07:39:07;11.70;99.90
1429;DHT22;708;51.442;7.016;2023-04-01T07:41:45;11.80;99.90
1429;DHT22;708;51.442;7.016;2023-04-01T07:44:18;11.90;99.90
1429;DHT22;708;51.442;7.016;2023-04-01T07:46:59;11.90;99.90
1429;DHT22;708;51.442;7.016;2023-04-01T07:49:36;12.00;99.90
1429;DHT22;708;51.442;7.016;2023-04-01T07:52:13;12.00;99.90
1429;DHT22;708;51.442;7.016;2023-04-01T07:54:47;12.00;99.90
1429;DHT22;708;51.442;7.016;2023-04-01T07:57:20;12.00;99.90
1429;DHT22;708;51.442;7.016;2023-04-01T07:59:57;11.90;99.90
1429;DHT22;708;51.442;7.016;2023-04-01T08:02:38;11.90;99.90
1429;DHT22;708;51.442;7.016;2023-04-01T08:05:17;11.90;99.90
1429;DHT22;708;51.442;7.016;2023-04-01T08:07:50;11.80;99.90
1429;DHT22;708;51.442;7.016;2023-04-01T08:10:25;11.80;99.90
1429;DHT22;708;51.442;7.016;2023-04-01T08:13:02;11.90;99.90
1429;DHT22;708;51.442;7.016;2023-04-01T08:15:38;11.90;99.90
1429;DHT22;708;51.442;7.016;2023-04-01T08:18:15;11.90;99.90
1429;DHT22;708;51.442;7.016;2023-04-01T08:20:47;12.00;99.90
1429;DHT22;708;51.442;7.016;2023-04-01T08:23:18;11.90;99.90
1429;DHT22;708;51.442;7.016;2023-04-01T08:25:52;12.00;99.90
1429;DHT22;708;51.442;7.016;2023-04-01T08:28:25;12.00;99.90
1429;DHT22;708;51.442;7.016;2023-04-01T08:31:00;12.00;99.90
1429;DHT22;708;51.442;7.016;2023-04-01T08:33:28;12.00;99.90
1429;DHT22;708;51.442;7.016;2023-04-01T08:35:59;12.00;99.90
1429;DHT22;708;51.442;7.016;2023-04-01T08:38:31;12.10;99.90
1429;DHT22;708;51.442;7.016;2023-04-01T08:41:01;12.10;99.90
1429;DHT22;708;51.442;7.016;2023-04-01T08:43:54;12.20;99.90
1429;DHT22;708;51.442;7.016;2023-04-01T08:46:46;12.30;99.90
1429;DHT22;708;51.442;7.016;2023-04-01T08:52:29;12.30;94.60
1429;DHT22;708;51.442;7.016;2023-04-01T08:55:24;12.20;93.00
1429;DHT22;708;51.442;7.016;2023-04-01T08:58:27;12.20;96.10
1429;DHT22;708;51.442;7.016;2023-04-01T09:01:10;12.20;94.70
1429;DHT22;708;51.442;7.016;2023-04-01T09:03:46;12.30;99.40
1429;DHT22;708;51.442;7.016;2023-04-01T09:06:25;12.40;99.90
1429;DHT22;708;51.442;7.016;2023-04-01T09:14:58;12.40;94.50
1429;DHT22;708;51.442;7.016;2023-04-01T09:20:57;12.40;96.00
1429;DHT22;708;51.442;7.016;2023-04-01T09:23:43;12.50;94.70
1429;DHT22;708;51.442;7.016;2023-04-01T09:26:23;12.50;95.10
1429;DHT22;708;51.442;7.016;2023-04-01T09:29:00;12.50;88.60
1429;DHT22;708;51.442;7.016;2023-04-01T09:31:57;12.60;83.40
1429;DHT22;708;51.442;7.016;2023-04-01T09:34:52;12.60;76.90
1429;DHT22;708;51.442;7.016;2023-04-01T09:37:31;12.70;73.50
1429;DHT22;708;51.442;7.016;2023-04-01T09:40:14;12.80;68.90
1429;DHT22;708;51.442;7.016;2023-04-01T09:42:54;12.90;60.90
1429;DHT22;708;51.442;7.016;2023-04-01T09:45:42;13.10;53.50
1429;DHT22;708;51.442;7.016;2023-04-01T09:48:19;13.30;34.10
1429;DHT22;708;51.442;7.016;2023-04-01T09:50:52;13.40;36.30
1429;DHT22;708;51.442;7.016;2023-04-01T09:53:35;13.40;31.90
1429;DHT22;708;51.442;7.016;2023-04-01T09:56:21;13.50;30.10
1429;DHT22;708;51.442;7.016;2023-04-01T09:59:08;13.60;27.60
1429;DHT22;708;51.442;7.016;2023-04-01T10:01:57;13.60;27.80
1429;DHT22;708;51.442;7.016;2023-04-01T10:07:59;13.60;18.70
1429;DHT22;708;51.442;7.016;2023-04-01T10:11:05;13.60;14.40
1429;DHT22;708;51.442;7.016;2023-04-01T10:17:08;13.70;21.60
1429;DHT22;708;51.442;7.016;2023-04-01T10:20:00;13.80;18.70
1429;DHT22;708;51.442;7.016;2023-04-01T10:22:58;13.90;17.50
1429;DHT22;708;51.442;7.016;2023-04-01T10:25:38;13.90;22.90
1429;DHT22;708;51.442;7.016;2023-04-01T10:28:38;14.00;12.20
1429;DHT22;708;51.442;7.016;2023-04-01T10:31:36;14.00;6.40
1429;DHT22;708;51.442;7.016;2023-04-01T10:37:23;14.10;7.10
1429;DHT22;708;51.442;7.016;2023-04-01T10:40:24;14.00;2.50
1429;DHT22;708;51.442;7.016;2023-04-01T10:46:24;14.00;11.60
1429;DHT22;708;51.442;7.016;2023-04-01T10:49:16;13.90;5.40
1429;DHT22;708;51.442;7.016;2023-04-01T10:52:21;13.90;4.30
1429;DHT22;708;51.442;7.016;2023-04-01T10:55:04;13.80;10.80
1429;DHT22;708;51.442;7.016;2023-04-01T10:57:55;13.80;11.50
1429;DHT22;708;51.442;7.016;2023-04-01T11:04:01;13.60;11.50
1429;DHT22;708;51.442;7.016;2023-04-01T11:10:15;13.50;24.80
1429;DHT22;708;51.442;7.016;2023-04-01T11:13:03;13.40;27.60
1429;DHT22;708;51.442;7.016;2023-04-01T11:19:09;13.30;36.10
1429;DHT22;708;51.442;7.016;2023-04-01T11:27:55;13.40;40.40
1429;DHT22;708;51.442;7.016;2023-04-01T11:30:41;13.50;44.70
1429;DHT22;708;51.442;7.016;2023-04-01T11:33:16;13.50;36.00
1429;DHT22;708;51.442;7.016;2023-04-01T11:35:57;13.60;37.40
1429;DHT22;708;51.442;7.016;2023-04-01T11:38:53;13.70;28.30
1429;DHT22;708;51.442;7.016;2023-04-01T11:41:30;13.70;21.50
1429;DHT22;708;51.442;7.016;2023-04-01T11:44:17;13.70;25.80
1429;DHT22;708;51.442;7.016;2023-04-01T11:47:12;13.80;24.60
1429;DHT22;708;51.442;7.016;2023-04-01T11:49:57;13.90;27.10
1429;DHT22;708;51.442;7.016;2023-04-01T11:52:42;14.00;22.10
1429;DHT22;708;51.442;7.016;2023-04-01T11:55:28;14.10;19.70
1429;DHT22;708;51.442;7.016;2023-04-01T11:58:22;14.10;11.60
1429;DHT22;708;51.442;7.016;2023-04-01T12:01:09;14.10;11.30
1429;DHT22;708;51.442;7.016;2023-04-01T12:03:51;14.10;10.80
1429;DHT22;708;51.442;7.016;2023-04-01T12:06:24;14.10;15.50
1429;DHT22;708;51.442;7.016;2023-04-01T12:09:02;14.10;11.60
1429;DHT22;708;51.442;7.016;2023-04-01T12:11:36;14.00;15.50
1429;DHT22;708;51.442;7.016;2023-04-01T12:14:09;14.00;25.80
1429;DHT22;708;51.442;7.016;2023-04-01T12:16:50;14.10;26.80
1429;DHT22;708;51.442;7.016;2023-04-01T12:19:24;14.20;29.70
1429;DHT22;708;51.442;7.016;2023-04-01T12:22:07;14.40;30.00
1429;DHT22;708;51.442;7.016;2023-04-01T12:24:48;14.50;11.70
1429;DHT22;708;51.442;7.016;2023-04-01T12:27:43;14.50;3.80
1429;DHT22;708;51.442;7.016;2023-04-01T12:30:30;14.60;4.50
1429;DHT22;708;51.442;7.016;2023-04-01T12:33:10;14.70;1.00
1429;DHT22;708;51.442;7.016;2023-04-01T12:35:52;14.70;1.00
1429;DHT22;708;51.442;7.016;2023-04-01T12:38:27;14.80;1.00
1429;DHT22;708;51.442;7.016;2023-04-01T12:41:11;14.80;1.00
1429;DHT22;708;51.442;7.016;2023-04-01T12:46:51;14.70;1.00
1429;DHT22;708;51.442;7.016;2023-04-01T12:49:31;14.60;1.00
1429;DHT22;708;51.442;7.016;2023-04-01T12:52:10;14.50;1.00
1429;DHT22;708;51.442;7.016;2023-04-01T12:55:09;14.50;1.00
1429;DHT22;708;51.442;7.016;2023-04-01T13:00:56;14.30;1.00
1429;DHT22;708;51.442;7.016;2023-04-01T13:03:47;14.10;1.00
1429;DHT22;708;51.442;7.016;2023-04-01T13:06:30;14.00;8.80
1429;DHT22;708;51.442;7.016;2023-04-01T13:09:06;13.90;13.40
1429;DHT22;708;51.442;7.016;2023-04-01T13:11:51;13.80;14.00
1429;DHT22;708;51.442;7.016;2023-04-01T13:14:51;13.60;27.80
1429;DHT22;708;51.442;7.016;2023-04-01T13:17:29;13.60;25.90
1429;DHT22;708;51.442;7.016;2023-04-01T13:20:04;13.50;31.40
1429;DHT22;708;51.442;7.016;2023-04-01T13:22:45;13.40;33.20
1429;DHT22;708;51.442;7.016;2023-04-01T13:25:24;13.40;45.20
1429;DHT22;708;51.442;7.016;2023-04-01T13:27:58;13.20;49.90
1429;DHT22;708;51.442;7.016;2023-04-01T13:30:34;13.10;56.20
1429;DHT22;708;51.442;7.016;2023-04-01T13:33:06;13.10;57.20
1429;DHT22;708;51.442;7.016;2023-04-01T13:35:44;13.00;63.30
1429;DHT22;708;51.442;7.016;2023-04-01T13:38:44;12.90;71.50
1429;DHT22;708;51.442;7.016;2023-04-01T13:41:22;12.90;83.40
1429;DHT22;708;51.442;7.016;2023-04-01T13:43:59;12.90;79.30
1429;DHT22;708;51.442;7.016;2023-04-01T13:46:44;12.90;89.60
1429;DHT22;708;51.442;7.016;2023-04-01T13:49:38;12.90;91.90
1429;DHT22;708;51.442;7.016;2023-04-01T13:52:31;12.90;90.90
1429;DHT22;708;51.442;7.016;2023-04-01T13:55:22;12.90;90.20
1429;DHT22;708;51.442;7.016;2023-04-01T14:00:58;13.00;86.60
1429;DHT22;708;51.442;7.016;2023-04-01T14:03:52;13.00;80.10
1429;DHT22;708;51.442;7.016;2023-04-01T14:06:35;13.00;74.50
1429;DHT22;708;51.442;7.016;2023-04-01T14:09:42;13.00;77.10
1429;DHT22;708;51.442;7.016;2023-04-01T14:12:22;13.10;85.10
1429;DHT22;708;51.442;7.016;2023-04-01T14:15:04;13.10;80.20
1429;DHT22;708;51.442;7.016;2023-04-01T14:17:46;13.10;75.00
1429;DHT22;708;51.442;7.016;2023-04-01T14:20:26;13.10;76.70
1429;DHT22;708;51.442;7.016;2023-04-01T14:23:07;13.10;80.90
1429;DHT22;708;51.442;7.016;2023-04-01T14:25:56;13.10;76.30
1429;DHT22;708;51.442;7.016;2023-04-01T14:28:32;13.10;71.00
1429;DHT22;708;51.442;7.016;2023-04-01T14:31:34;13.10;74.00
1429;DHT22;708;51.442;7.016;2023-04-01T14:34:10;13.00;73.90
1429;DHT22;708;51.442;7.016;2023-04-01T14:48:51;12.80;99.30
1429;DHT22;708;51.442;7.016;2023-04-01T14:51:23;12.80;99.90
1429;DHT22;708;51.442;7.016;2023-04-01T14:54:02;12.80;99.90
1429;DHT22;708;51.442;7.016;2023-04-01T14:56:36;12.80;99.90
1429;DHT22;708;51.442;7.016;2023-04-01T14:59:08;12.90;99.90
1429;DHT22;708;51.442;7.016;2023-04-01T15:01:40;13.00;99.90
1429;DHT22;708;51.442;7.016;2023-04-01T15:10:06;13.20;90.20
1429;DHT22;708;51.442;7.016;2023-04-01T15:12:42;13.30;84.00
1429;DHT22;708;51.442;7.016;2023-04-01T15:15:30;13.40;83.00
1429;DHT22;708;51.442;7.016;2023-04-01T15:18:09;13.50;72.50
1429;DHT22;708;51.442;7.016;2023-04-01T15:23:48;13.50;53.60
1429;DHT22;708;51.442;7.016;2023-04-01T15:26:31;13.60;48.70
1429;DHT22;708;51.442;7.016;2023-04-01T15:29:11;13.60;49.30
1429;DHT22;708;51.442;7.016;2023-04-01T15:31:45;13.60;45.20
1429;DHT22;708;51.442;7.016;2023-04-01T15:34:24;13.60;42.70
1429;DHT22;708;51.442;7.016;2023-04-01T15:36:57;13.50;46.00
1429;DHT22;708;51.442;7.016;2023-04-01T15:39:37;13.50;47.00
1429;DHT22;708;51.442;7.016;2023-04-01T15:42:16;13.50;45.30
1429;DHT22;708;51.442;7.016;2023-04-01T15:44:54;13.50;50.80
1429;DHT22;708;51.442;7.016;2023-04-01T15:47:44;13.50;44.30
1429;DHT22;708;51.442;7.016;2023-04-01T15:50:47;13.50;41.60
1429;DHT22;708;51.442;7.016;2023-04-01T15:53:35;13.50;44.80
1429;DHT22;708;51.442;7.016;2023-04-01T15:59:15;13.40;51.10
1429;DHT22;708;51.442;7.016;2023-04-01T16:01:50;13.30;58.60
1429;DHT22;708;51.442;7.016;2023-04-01T16:04:32;13.20;66.40
1429;DHT22;708;51.442;7.016;2023-04-01T16:07:09;13.20;68.90
1429;DHT22;708;51.442;7.016;2023-04-01T16:09:52;13.20;84.00
1429;DHT22;708;51.442;7.016;2023-04-01T16:12:33;13.30;73.20
1429;DHT22;708;51.442;7.016;2023-04-01T16:15:14;13.40;66.60
1429;DHT22;708;51.442;7.016;2023-04-01T16:18:20;13.40;55.80
1429;DHT22;708;51.442;7.016;2023-04-01T16:20:53;13.40;55.60
1429;DHT22;708;51.442;7.016;2023-04-01T16:23:26;13.40;51.50
1429;DHT22;708;51.442;7.016;2023-04-01T16:26:03;13.30;54.70
1429;DHT22;708;51.442;7.016;2023-04-01T16:28:36;13.30;61.00
1429;DHT22;708;51.442;7.016;2023-04-01T16:31:10;13.30;60.60
1429;DHT22;708;51.442;7.016;2023-04-01T16:33:46;13.30;62.50
1429;DHT22;708;51.442;7.016;2023-04-01T16:36:22;13.20;66.90
1429;DHT22;708;51.442;7.016;2023-04-01T16:39:02;13.20;75.40
1429;DHT22;708;51.442;7.016;2023-04-01T16:41:33;13.20;78.40
1429;DHT22;708;51.442;7.016;2023-04-01T16:44:10;13.10;81.60
1429;DHT22;708;51.442;7.016;2023-04-01T16:46:43;13.10;90.70
1429;DHT22;708;51.442;7.016;2023-04-01T16:49:32;13.00;92.30
1429;DHT22;708;51.442;7.016;2023-04-01T16:52:12;13.00;94.50
1429;DHT22;708;51.442;7.016;2023-04-01T16:54:45;13.00;94.90
1429;DHT22;708;51.442;7.016;2023-04-01T16:57:19;13.00;92.60
1429;DHT22;708;51.442;7.016;2023-04-01T16:59:55;13.00;92.70
1429;DHT22;708;51.442;7.016;2023-04-01T17:02:29;13.00;93.70
1429;DHT22;708;51.442;7.016;2023-04-01T17:05:02;13.00;97.80
1429;DHT22;708;51.442;7.016;2023-04-01T17:07:39;13.00;99.30
1429;DHT22;708;51.442;7.016;2023-04-01T17:10:37;13.00;97.70
1429;DHT22;708;51.442;7.016;2023-04-01T17:13:34;12.90;94.90
1429;DHT22;708;51.442;7.016;2023-04-01T17:16:14;12.90;97.20
1429;DHT22;708;51.442;7.016;2023-04-01T17:18:50;12.80;99.70
1429;DHT22;708;51.442;7.016;2023-04-01T17:21:25;12.80;99.40
1429;DHT22;708;51.442;7.016;2023-04-01T17:24:04;12.80;99.90
1429;DHT22;708;51.442;7.016;2023-04-01T17:26:37;12.80;99.90
1429;DHT22;708;51.442;7.016;2023-04-01T17:29:12;12.80;99.90
1429;DHT22;708;51.442;7.016;2023-04-01T17:31:46;12.80;99.70
1429;DHT22;708;51.442;7.016;2023-04-01T17:34:37;12.80;97.90
1429;DHT22;708;51.442;7.016;2023-04-01T17:37:19;12.80;99.30
1429;DHT22;708;51.442;7.016;2023-04-01T17:39:55;12.80;99.90
1429;DHT22;708;51.442;7.016;2023-04-01T17:42:33;12.80;99.90
1429;DHT22;708;51.442;7.016;2023-04-01T17:45:10;12.80;99.90
1429;DHT22;708;51.442;7.016;2023-04-01T17:47:47;12.80;99.90
1429;DHT22;708;51.442;7.016;2023-04-01T17:50:28;12.80;99.90
1429;DHT22;708;51.442;7.016;2023-04-01T17:53:13;12.80;99.90
1429;DHT22;708;51.442;7.016;2023-04-01T17:55:48;12.80;99.90
1429;DHT22;708;51.442;7.016;2023-04-01T17:58:20;12.80;99.90
1429;DHT22;708;51.442;7.016;2023-04-01T18:01:03;12.70;99.90
1429;DHT22;708;51.442;7.016;2023-04-01T18:03:54;12.70;99.90
1429;DHT22;708;51.442;7.016;2023-04-01T18:06:33;12.70;99.90
1429;DHT22;708;51.442;7.016;2023-04-01T18:09:08;12.70;99.90
1429;DHT22;708;51.442;7.016;2023-04-01T18:11:46;12.70;99.90
1429;DHT22;708;51.442;7.016;2023-04-01T18:14:32;12.70;99.90
1429;DHT22;708;51.442;7.016;2023-04-01T18:17:17;12.70;99.90
1429;DHT22;708;51.442;7.016;2023-04-01T18:20:01;12.70;99.90
1429;DHT22;708;51.442;7.016;2023-04-01T18:22:36;12.70;99.90
1429;DHT22;708;51.442;7.016;2023-04-01T18:25:14;12.70;99.90
1429;DHT22;708;51.442;7.016;2023-04-01T18:27:46;12.70;99.90
1429;DHT22;708;51.442;7.016;2023-04-01T18:30:17;12.70;99.90
1429;DHT22;708;51.442;7.016;2023-04-01T18:32:48;12.70;99.90
1429;DHT22;708;51.442;7.016;2023-04-01T18:35:24;12.70;99.90